Time;durP1;ratioP1;P1;durP2;ratioP2;P2;SDS_P1;SDS_P2;PMS_P1;PMS_P2;Temp;Humidity;BMP_temperature;BMP_pressure;BME280_temperature;BME280_humidity;BME280_pressure;Samples;Min_cycle;Max_cycle;Signal;HPM_P1;HPM_P2
2023/10/15 00:01:05;;;;;;;8.70;4.27;;;;;;;9.28;100.00;101713.94;5240470;28;20036;-72
2023/10/15 00:03:37;;;;;;;8.87;3.80;;;;;;;9.34;100.00;101718.06;5247316;28;20376;-72
2023/10/15 00:06:08;;;;;;;13.37;4.23;;;;;;;9.37;100.00;101733.66;5244579;28;20381;-72
2023/10/15 00:08:40;;;;;;;11.93;4.10;;;;;;;9.32;100.00;101720.75;5246376;28;20029;-73
2023/10/15 00:11:17;;;;;;;7.17;3.70;;;;;;;9.32;100.00;101736.41;5252332;28;20671;-73
2023/10/15 00:13:49;;;;;;;13.23;4.43;;;;;;;9.40;100.00;101751.81;5239852;28;20036;-73
2023/10/15 00:16:21;;;;;;;9.50;3.87;;;;;;;9.39;100.00;101747.47;5251737;28;20400;-73
2023/10/15 00:18:52;;;;;;;7.10;3.67;;;;;;;9.39;100.00;101750.09;5251146;28;20036;-70
2023/10/15 00:21:26;;;;;;;9.47;3.20;;;;;;;9.46;100.00;101752.47;5247086;28;20057;-72
2023/10/15 00:23:57;;;;;;;8.90;3.47;;;;;;;9.43;100.00;101754.31;5245453;28;20384;-70
2023/10/15 00:26:30;;;;;;;10.30;4.13;;;;;;;9.50;100.00;101757.50;5247264;28;20025;-72
2023/10/15 00:29:01;;;;;;;10.07;3.27;;;;;;;9.58;100.00;101761.59;5248755;28;20040;-72
2023/10/15 00:31:33;;;;;;;9.57;3.13;;;;;;;9.63;100.00;101750.03;5248902;28;20025;-71
2023/10/15 00:34:04;;;;;;;12.30;3.90;;;;;;;9.59;100.00;101747.59;5248339;28;20059;-73
2023/10/15 00:36:37;;;;;;;11.70;3.37;;;;;;;9.56;100.00;101746.78;5248508;28;20567;-74
2023/10/15 00:39:19;;;;;;;8.03;3.40;;;;;;;9.66;100.00;101751.66;5245893;28;20017;-73
2023/10/15 00:41:53;;;;;;;7.80;3.80;;;;;;;9.60;100.00;101750.13;5246214;28;20033;-74
2023/10/15 00:44:26;;;;;;;6.57;2.85;;;;;;;9.64;100.00;101751.72;5236907;28;20029;-73
2023/10/15 00:47:01;;;;;;;8.33;3.73;;;;;;;9.72;100.00;101754.00;5248821;28;20699;-73
2023/10/15 00:49:33;;;;;;;11.50;3.73;;;;;;;9.70;100.00;101728.84;5243824;28;20114;-72
2023/10/15 00:52:06;;;;;;;14.33;4.03;;;;;;;9.75;100.00;101739.97;5246073;28;20128;-71
2023/10/15 00:54:39;;;;;;;13.80;2.97;;;;;;;9.69;100.00;101738.44;5252043;28;20391;-72
2023/10/15 00:57:41;;;;;;;7.63;3.57;;;;;;;9.75;100.00;101737.34;5249911;28;20020;-73
2023/10/15 01:03:06;;;;;;;3.63;2.17;;;;;;;9.68;100.00;101747.22;5250053;28;20072;-72
2023/10/15 01:05:45;;;;;;;10.05;2.63;;;;;;;9.64;100.00;101720.34;5254829;28;20045;-73
2023/10/15 01:08:17;;;;;;;5.83;3.03;;;;;;;9.47;100.00;101688.81;5267854;22;20054;-83
2023/10/15 01:10:53;;;;;;;9.87;3.33;;;;;;;9.61;100.00;101725.69;5237750;28;20850;-83
2023/10/15 01:13:25;;;;;;;4.93;2.40;;;;;;;9.52;100.00;101707.75;5251337;28;20040;-82
2023/10/15 01:16:02;;;;;;;10.20;3.47;;;;;;;9.57;100.00;101729.34;5252986;28;20017;-85
2023/10/15 01:18:34;;;;;;;7.97;3.50;;;;;;;9.49;100.00;101706.13;5257276;28;20021;-84
2023/10/15 01:21:09;;;;;;;8.83;3.17;;;;;;;9.24;100.00;101669.69;5250912;28;20036;-84
2023/10/15 01:26:23;;;;;;;9.47;3.23;;;;;;;9.27;100.00;101682.63;5227661;28;20037;-84
2023/10/15 01:28:54;;;;;;;8.30;3.60;;;;;;;9.59;100.00;101718.81;5216851;28;20053;-84
2023/10/15 01:31:25;;;;;;;8.57;3.50;;;;;;;9.44;100.00;101702.88;5217806;28;20057;-84
2023/10/15 01:33:57;;;;;;;10.93;3.97;;;;;;;9.16;100.00;101668.22;5229064;28;20195;-84
2023/10/15 01:36:28;;;;;;;11.17;3.87;;;;;;;9.06;100.00;101665.13;5245454;28;20036;-84
2023/10/15 01:39:09;;;;;;;7.40;3.30;;;;;;;9.07;100.00;101676.44;5219352;28;20583;-84
2023/10/15 01:41:42;;;;;;;11.43;3.97;;;;;;;9.20;100.00;101685.50;5221395;28;20028;-84
2023/10/15 01:44:18;;;;;;;7.10;3.67;;;;;;;8.88;100.00;101644.97;5214871;28;20050;-84
2023/10/15 01:49:33;;;;;;;11.13;3.83;;;;;;;9.30;100.00;101706.88;5225979;28;20021;-83
2023/10/15 01:52:12;;;;;;;9.37;3.63;;;;;;;9.00;100.00;101714.19;5219621;28;20116;-83
2023/10/15 01:54:45;;;;;;;11.97;3.63;;;;;;;9.03;100.00;101690.53;5231358;28;20105;-83
2023/10/15 01:57:16;;;;;;;8.10;3.20;;;;;;;8.85;100.00;101676.47;5246567;28;20022;-83
2023/10/15 01:59:48;;;;;;;9.07;4.17;;;;;;;9.08;100.00;101706.88;5225026;28;20067;-83
2023/10/15 02:02:23;;;;;;;6.77;3.90;;;;;;;9.06;100.00;101714.78;5234834;28;20025;-83
2023/10/15 02:04:57;;;;;;;7.80;3.40;;;;;;;8.94;100.00;101669.09;5226269;28;20022;-83
2023/10/15 02:07:31;;;;;;;8.93;3.30;;;;;;;8.94;100.00;101668.25;5247220;28;20046;-83
2023/10/15 02:10:05;;;;;;;8.57;3.40;;;;;;;9.05;100.00;101686.97;5231484;28;20018;-83
2023/10/15 02:12:36;;;;;;;9.20;3.17;;;;;;;9.06;100.00;101679.97;5228622;28;20149;-83
2023/10/15 02:15:22;;;;;;;8.57;3.30;;;;;;;8.90;100.00;101657.06;5213665;28;20207;-83
2023/10/15 02:17:53;;;;;;;7.83;3.57;;;;;;;9.10;100.00;101689.38;5220572;28;20021;-83
2023/10/15 02:20:41;;;;;;;8.23;3.73;;;;;;;8.90;100.00;101661.47;5232556;28;20026;-83
2023/10/15 02:23:15;;;;;;;8.20;3.27;;;;;;;8.95;100.00;101664.72;5234621;28;20743;-83
2023/10/15 02:25:57;;;;;;;5.97;3.00;;;;;;;9.10;100.00;101681.56;5223843;28;20065;-84
2023/10/15 02:28:31;;;;;;;17.00;5.23;;;;;;;8.87;100.00;101651.97;5226078;28;20030;-83
2023/10/15 02:33:34;;;;;;;8.43;3.00;;;;;;;8.95;100.00;101683.84;5229748;28;20041;-83
2023/10/15 02:36:09;;;;;;;10.73;4.03;;;;;;;9.03;100.00;101699.25;5215131;28;20064;-83
2023/10/15 02:38:52;;;;;;;9.37;3.37;;;;;;;8.80;100.00;101655.72;5244622;28;20113;-82
2023/10/15 02:41:31;;;;;;;9.40;3.67;;;;;;;8.65;100.00;101631.06;5231371;28;20022;-83
2023/10/15 02:44:12;;;;;;;8.80;3.43;;;;;;;8.75;100.00;101663.75;5250514;28;20541;-82
2023/10/15 02:46:57;;;;;;;8.87;3.17;;;;;;;8.85;100.00;101677.28;5230489;28;20026;-82
2023/10/15 02:49:39;;;;;;;7.95;3.20;;;;;;;8.63;100.00;101648.53;5230377;28;20034;-83
2023/10/15 02:52:18;;;;;;;6.60;3.63;;;;;;;8.59;100.00;101637.38;5214509;28;20501;-82
2023/10/15 02:54:49;;;;;;;6.70;3.20;;;;;;;9.03;100.00;101701.00;5229757;28;20454;-82
2023/10/15 02:57:23;;;;;;;8.23;3.63;;;;;;;8.71;100.00;101646.47;5236217;28;20052;-83
2023/10/15 02:59:55;;;;;;;8.18;3.35;;;;;;;8.43;100.00;101658.81;5222571;28;20102;-82
2023/10/15 03:02:26;;;;;;;8.50;3.53;;;;;;;8.64;100.00;101728.59;5233179;28;20112;-83
2023/10/15 03:05:06;;;;;;;8.43;3.50;;;;;;;8.71;100.00;101738.75;5230006;28;20029;-82
2023/10/15 03:07:42;;;;;;;7.30;3.20;;;;;;;8.65;100.00;101714.63;5228032;28;20079;-82
2023/10/15 03:10:23;;;;;;;6.00;2.93;;;;;;;8.66;100.00;101695.44;5226898;28;20073;-82
2023/10/15 03:12:59;;;;;;;4.40;3.03;;;;;;;8.74;100.00;101703.00;5237583;28;20481;-83
2023/10/15 03:15:30;;;;;;;7.37;3.70;;;;;;;8.86;100.00;101718.19;5233960;28;20034;-83
2023/10/15 03:18:02;;;;;;;7.17;3.90;;;;;;;8.56;100.00;101705.38;5229727;28;20039;-83
2023/10/15 03:20:40;;;;;;;8.33;3.77;;;;;;;8.71;100.00;101715.25;5230065;28;20485;-83
2023/10/15 03:23:16;;;;;;;12.33;4.73;;;;;;;8.72;100.00;101723.94;5223922;28;20017;-83
2023/10/15 03:25:57;;;;;;;10.70;3.90;;;;;;;9.16;100.00;101770.16;5222480;28;20057;-83
2023/10/15 03:28:28;;;;;;;5.87;3.00;;;;;;;8.80;100.00;101745.38;5211813;28;20053;-83
2023/10/15 03:31:00;;;;;;;10.13;3.33;;;;;;;8.79;100.00;101711.50;5214326;28;20022;-84
2023/10/15 03:33:35;;;;;;;9.00;2.97;;;;;;;8.88;100.00;101732.06;5214851;28;20022;-84
2023/10/15 03:36:12;;;;;;;7.37;3.10;;;;;;;8.86;100.00;101710.34;5213992;28;20026;-83
2023/10/15 03:38:47;;;;;;;6.63;2.93;;;;;;;8.74;100.00;101713.44;5229906;28;20033;-83
2023/10/15 03:41:29;;;;;;;4.68;1.95;;;;;;;8.71;100.00;101712.63;5226593;28;20790;-82
2023/10/15 03:44:04;;;;;;;7.63;2.60;;;;;;;9.21;100.00;101770.00;5213003;28;20037;-81
2023/10/15 03:46:36;;;;;;;6.07;2.07;;;;;;;8.94;100.00;101733.56;5228624;28;20551;-81
2023/10/15 03:49:08;;;;;;;4.07;1.70;;;;;;;9.00;100.00;101753.38;5213356;28;20037;-81
2023/10/15 03:51:47;;;;;;;2.67;1.40;;;;;;;9.00;100.00;101746.41;5230856;28;20541;-81
2023/10/15 03:54:22;;;;;;;4.47;1.70;;;;;;;9.12;100.00;101750.28;5249014;28;20029;-81
2023/10/15 03:56:53;;;;;;;6.22;2.28;;;;;;;8.98;100.00;101726.44;5221796;28;20026;-81
2023/10/15 03:59:26;;;;;;;5.17;1.50;;;;;;;9.06;100.00;101742.69;5213534;28;20528;-81
2023/10/15 04:01:58;;;;;;;7.40;1.53;;;;;;;9.22;100.00;101773.44;5218599;28;20060;-81
2023/10/15 04:04:30;;;;;;;4.20;1.43;;;;;;;8.95;100.00;101740.50;5238361;28;20029;-83
2023/10/15 04:07:18;;;;;;;4.47;1.53;;;;;;;8.87;100.00;101766.03;5228724;28;20079;-84
2023/10/15 04:09:51;;;;;;;5.47;1.97;;;;;;;8.80;100.00;101754.97;5241066;28;20025;-85
2023/10/15 04:12:27;;;;;;;5.83;1.70;;;;;;;8.75;100.00;101746.47;5228272;28;20101;-85
2023/10/15 04:14:58;;;;;;;5.23;1.60;;;;;;;9.10;100.00;101796.53;5229548;28;20025;-86
2023/10/15 04:17:30;;;;;;;7.90;3.27;;;;;;;9.29;100.00;101809.75;5212950;28;20409;-85
2023/10/15 04:20:01;;;;;;;3.83;1.60;;;;;;;9.30;100.00;101811.44;5213362;28;20105;-84
2023/10/15 04:22:36;;;;;;;4.17;1.70;;;;;;;9.23;100.00;101791.69;5217981;28;20028;-83
2023/10/15 04:25:07;;;;;;;4.85;1.70;;;;;;;9.17;100.00;101764.03;5233535;28;20021;-83
2023/10/15 04:27:42;;;;;;;3.57;1.67;;;;;;;8.88;100.00;101733.81;5219258;28;20229;-84
2023/10/15 04:30:14;;;;;;;5.22;2.15;;;;;;;9.32;100.00;101795.69;5249958;28;20035;-83
2023/10/15 04:32:47;;;;;;;4.63;2.37;;;;;;;8.93;100.00;101730.13;5219691;28;20585;-83
2023/10/15 04:35:18;;;;;;;3.57;1.93;;;;;;;9.11;100.00;101774.72;5229017;28;20058;-83
2023/10/15 04:37:53;;;;;;;9.33;2.20;;;;;;;8.86;100.00;101720.81;5214927;28;20026;-83
2023/10/15 04:40:24;;;;;;;3.95;2.08;;;;;;;9.08;100.00;101765.25;5232791;28;20018;-82
2023/10/15 04:42:59;;;;;;;5.83;1.87;;;;;;;9.00;100.00;101738.56;5230753;28;20100;-83
2023/10/15 04:48:13;;;;;;;8.15;2.83;;;;;;;9.01;100.00;101731.56;5223651;28;20040;-82
2023/10/15 04:50:45;;;;;;;5.73;2.17;;;;;;;9.40;100.00;101785.81;5217450;28;20026;-83
2023/10/15 04:53:23;;;;;;;5.40;2.77;;;;;;;9.17;100.00;101740.50;5229507;28;20392;-83
2023/10/15 04:55:56;;;;;;;5.57;2.57;;;;;;;9.39;100.00;101755.31;5233101;28;20529;-83
2023/10/15 04:58:28;;;;;;;6.60;2.80;;;;;;;9.00;100.00;101682.84;5228763;28;20029;-82
2023/10/15 05:00:59;;;;;;;4.33;2.10;;;;;;;9.12;100.00;101698.03;5241535;28;20556;-82
2023/10/15 05:03:31;;;;;;;4.77;2.13;;;;;;;9.33;100.00;101734.66;5237769;28;20080;-82
2023/10/15 05:06:06;;;;;;;3.20;1.40;;;;;;;9.20;100.00;101729.06;5231264;28;20056;-81
2023/10/15 05:08:40;;;;;;;;;;;;;;;9.75;100.00;101738.19;5239818;28;20405;-81
2023/10/15 05:11:11;;;;;;;5.63;1.57;;;;;;;9.22;100.00;101723.78;5251322;28;20317;-81
2023/10/15 05:13:43;;;;;;;6.90;1.73;;;;;;;9.24;100.00;101716.72;5222008;28;20112;-81
2023/10/15 05:16:14;;;;;;;6.57;1.70;;;;;;;8.97;100.00;101678.59;5237497;28;20029;-81
2023/10/15 05:18:49;;;;;;;3.50;1.07;;;;;;;9.14;100.00;101722.34;5252445;28;20080;-81
2023/10/15 05:21:21;;;;;;;4.70;1.10;;;;;;;9.34;100.00;101748.59;5227506;28;20026;-81
2023/10/15 05:23:55;;;;;;;5.53;1.47;;;;;;;9.17;100.00;101716.13;5228017;28;20083;-81
2023/10/15 05:26:26;;;;;;;5.95;1.70;;;;;;;8.99;100.00;101738.63;5216685;28;20032;-81
2023/10/15 05:28:59;;;;;;;4.87;1.70;;;;;;;9.05;100.00;101769.72;5232157;28;20046;-81
2023/10/15 05:31:33;;;;;;;9.63;2.77;;;;;;;9.04;100.00;101765.44;5245544;28;20087;-82
2023/10/15 05:34:07;;;;;;;;;;;;;;;9.72;100.00;101821.19;5216409;28;20061;-82
2023/10/15 05:36:38;;;;;;;4.83;1.63;;;;;;;8.97;100.00;101777.88;5216778;28;19913;-82
2023/10/15 05:39:10;;;;;;;4.83;1.60;;;;;;;8.78;100.00;101764.66;5246063;28;20025;-82
2023/10/15 05:41:43;;;;;;;5.70;1.83;;;;;;;8.96;100.00;101789.22;5220847;28;20012;-82
2023/10/15 05:44:14;;;;;;;3.63;1.20;;;;;;;8.91;100.00;101789.41;5226021;28;20041;-83
2023/10/15 05:46:46;;;;;;;6.37;1.83;;;;;;;8.80;100.00;101788.94;5231094;28;20411;-83
2023/10/15 05:49:17;;;;;;;4.37;0.97;;;;;;;8.81;100.00;101798.50;5216410;28;20096;-83
2023/10/15 05:51:49;;;;;;;3.43;1.20;;;;;;;8.88;100.00;101793.88;5230356;28;20034;-83
2023/10/15 05:54:20;;;;;;;4.50;0.93;;;;;;;8.97;100.00;101801.41;5231003;28;21783;-83
2023/10/15 05:56:52;;;;;;;5.17;0.73;;;;;;;8.85;100.00;101787.00;5221419;28;20457;-82
2023/10/15 05:59:23;;;;;;;2.70;0.70;;;;;;;9.01;100.00;101812.56;5234983;28;20377;-82
2023/10/15 06:01:55;;;;;;;2.17;0.80;;;;;;;8.60;100.00;101753.97;5221086;28;20017;-82
2023/10/15 06:04:26;;;;;;;2.53;0.90;;;;;;;8.56;100.00;101768.03;5239568;28;20032;-82
2023/10/15 06:06:58;;;;;;;3.70;1.00;;;;;;;8.60;100.00;101764.44;5261400;28;20042;-81
2023/10/15 06:09:29;;;;;;;1.67;0.73;;;;;;;8.74;100.00;101803.09;5241499;28;20056;-82
2023/10/15 06:12:01;;;;;;;3.33;1.17;;;;;;;8.68;100.00;101798.06;5227607;28;20121;-81
2023/10/15 06:14:33;;;;;;;1.90;0.70;;;;;;;8.77;100.00;101800.38;5244490;28;20124;-81
2023/10/15 06:17:05;;;;;;;1.73;0.77;;;;;;;8.92;100.00;101824.22;5233852;28;20017;-80
2023/10/15 06:19:36;;;;;;;3.80;1.20;;;;;;;8.56;100.00;101762.81;5226518;28;20021;-81
2023/10/15 06:22:08;;;;;;;2.57;0.70;;;;;;;8.62;100.00;101813.97;5218006;28;20076;-80
2023/10/15 06:24:39;;;;;;;2.33;0.70;;;;;;;8.66;100.00;101805.09;5227500;28;20029;-80
2023/10/15 06:27:11;;;;;;;2.17;0.70;;;;;;;8.69;100.00;101823.31;5220987;28;20108;-80
2023/10/15 06:29:42;;;;;;;5.37;1.00;;;;;;;8.87;100.00;101831.34;5232378;28;20461;-80
2023/10/15 06:32:13;;;;;;;2.00;1.03;;;;;;;8.86;100.00;101833.13;5231953;28;20030;-80
2023/10/15 06:34:45;;;;;;;1.57;0.80;;;;;;;8.67;100.00;101817.28;5216625;28;20026;-80
2023/10/15 06:37:16;;;;;;;3.87;1.27;;;;;;;8.96;100.00;101849.31;5213763;28;20030;-80
2023/10/15 06:39:47;;;;;;;1.80;0.70;;;;;;;8.84;100.00;101834.94;5216089;28;20048;-79
2023/10/15 06:42:18;;;;;;;2.80;0.97;;;;;;;8.84;100.00;101842.78;5232442;28;20108;-80
2023/10/15 06:44:50;;;;;;;5.53;1.13;;;;;;;8.89;100.00;101832.16;5246949;28;20028;-80
2023/10/15 06:47:21;;;;;;;3.03;0.90;;;;;;;8.77;100.00;101817.78;5214490;28;20026;-83
2023/10/15 06:49:55;;;;;;;3.10;0.97;;;;;;;8.56;100.00;101788.94;5215172;28;20057;-83
2023/10/15 06:52:27;;;;;;;2.78;1.30;;;;;;;8.67;100.00;101812.91;5249816;28;20029;-82
2023/10/15 06:54:58;;;;;;;5.90;1.20;;;;;;;8.73;100.00;101806.59;5233097;28;20025;-82
2023/10/15 06:57:30;;;;;;;4.90;1.30;;;;;;;8.62;100.00;101764.38;5230743;28;20105;-82
2023/10/15 07:00:05;;;;;;;4.17;1.73;;;;;;;8.68;100.00;101775.44;5232356;28;20037;-81
2023/10/15 07:02:37;;;;;;;3.17;1.07;;;;;;;8.44;100.00;101790.19;5216933;28;20446;-82
2023/10/15 07:05:08;;;;;;;3.50;1.20;;;;;;;9.01;100.00;101864.81;5234674;28;20108;-82
2023/10/15 07:07:40;;;;;;;3.50;1.37;;;;;;;8.79;100.00;101823.81;5235586;28;20045;-82
2023/10/15 07:10:17;;;;;;;4.73;1.90;;;;;;;8.73;100.00;101800.53;5245959;28;20453;-81
2023/10/15 07:12:52;;;;;;;4.43;1.43;;;;;;;8.69;100.00;101823.31;5237249;28;20506;-81
2023/10/15 07:15:24;;;;;;;3.50;1.10;;;;;;;8.75;100.00;101820.47;5224627;28;20026;-82
2023/10/15 07:17:56;;;;;;;2.30;0.80;;;;;;;8.76;100.00;101844.81;5228856;28;20026;-82
2023/10/15 07:20:27;;;;;;;6.30;1.17;;;;;;;9.02;100.00;101843.88;5227969;28;20022;-82
2023/10/15 07:23:01;;;;;;;4.63;1.30;;;;;;;9.28;100.00;101869.94;5233802;28;20024;-81
2023/10/15 07:25:33;;;;;;;3.25;1.30;;;;;;;9.03;100.00;101818.56;5232177;28;20029;-80
2023/10/15 07:28:04;;;;;;;3.57;1.10;;;;;;;9.24;100.00;101848.28;5216049;28;20021;-80
2023/10/15 07:30:36;;;;;;;7.20;1.83;;;;;;;9.29;100.00;101854.19;5221729;28;20061;-82
2023/10/15 07:33:08;;;;;;;3.03;1.17;;;;;;;9.17;100.00;101837.22;5220380;28;20121;-81
2023/10/15 07:35:39;;;;;;;7.13;1.87;;;;;;;9.08;100.00;101842.78;5239583;28;20025;-83
2023/10/15 07:38:12;;;;;;;4.90;1.47;;;;;;;9.17;100.00;101865.97;5238378;28;20018;-83
2023/10/15 07:40:43;;;;;;;3.60;1.57;;;;;;;9.30;100.00;101886.41;5233967;28;20389;-83
2023/10/15 07:43:15;;;;;;;4.27;1.40;;;;;;;9.25;100.00;101897.03;5216839;28;20034;-83
2023/10/15 07:45:46;;;;;;;2.70;1.10;;;;;;;9.21;100.00;101890.22;5223938;28;20481;-83
2023/10/15 07:48:18;;;;;;;7.23;1.97;;;;;;;9.24;100.00;101855.25;5231325;28;20746;-84
2023/10/15 07:50:49;;;;;;;4.53;1.63;;;;;;;9.36;100.00;101862.66;5214734;28;20030;-84
2023/10/15 07:53:21;;;;;;;5.30;1.27;;;;;;;9.38;100.00;101871.28;5228409;28;20029;-84
2023/10/15 07:55:52;;;;;;;4.37;1.50;;;;;;;9.28;100.00;101854.25;5234657;28;20032;-84
2023/10/15 07:58:24;;;;;;;5.17;1.43;;;;;;;9.63;100.00;101875.59;5220292;28;20033;-85
2023/10/15 08:00:55;;;;;;;5.97;1.33;;;;;;;9.78;100.00;101894.19;5232600;28;20469;-82
2023/10/15 08:03:29;;;;;;;6.70;1.70;;;;;;;9.65;100.00;101852.81;5227443;28;20038;-83
2023/10/15 08:06:01;;;;;;;4.10;1.50;;;;;;;9.58;100.00;101848.75;5227200;28;20537;-83
2023/10/15 08:08:34;;;;;;;6.73;1.70;;;;;;;10.01;100.00;101915.97;5231751;28;20073;-83
2023/10/15 08:11:06;;;;;;;4.77;1.43;;;;;;;9.82;100.00;101869.59;5248169;28;20112;-81
2023/10/15 08:13:37;;;;;;;8.40;1.87;;;;;;;9.90;100.00;101870.13;5249411;28;20028;-81
2023/10/15 08:16:09;;;;;;;6.30;1.50;;;;;;;9.94;100.00;101878.72;5234583;28;20056;-81
2023/10/15 08:18:42;;;;;;;6.97;1.67;;;;;;;10.09;100.00;101897.34;5233531;28;20025;-82
2023/10/15 08:21:13;;;;;;;6.97;1.67;;;;;;;10.22;100.00;101924.72;5232538;28;20561;-82
2023/10/15 08:23:45;;;;;;;3.57;1.33;;;;;;;10.14;100.00;101916.34;5233348;28;20029;-80
2023/10/15 08:26:16;;;;;;;5.90;1.87;;;;;;;9.94;100.00;101915.34;5213370;28;20080;-81
2023/10/15 08:28:48;;;;;;;8.93;1.70;;;;;;;9.92;100.00;101927.66;5213052;28;20057;-80
2023/10/15 08:31:19;;;;;;;5.37;1.20;;;;;;;9.93;100.00;101929.38;5240506;28;20021;-79
2023/10/15 08:33:50;;;;;;;6.40;1.57;;;;;;;9.95;100.00;101943.22;5211235;28;20266;-82
2023/10/15 08:36:22;;;;;;;7.93;1.80;;;;;;;10.02;100.00;101983.09;5225307;28;20017;-81
2023/10/15 08:38:53;;;;;;;9.30;1.87;;;;;;;9.89;100.00;101956.56;5222709;28;20114;-81
2023/10/15 08:41:30;;;;;;;5.77;2.33;;;;;;;9.90;100.00;101971.34;5210176;28;20709;-82
2023/10/15 08:44:05;;;;;;;8.47;1.60;;;;;;;9.91;100.00;101986.16;5236548;28;20036;-81
2023/10/15 08:46:40;;;;;;;4.67;1.87;;;;;;;9.95;100.00;101976.41;5216261;28;20022;-81
2023/10/15 08:49:12;;;;;;;5.60;1.55;;;;;;;10.07;100.00;101998.63;5220860;28;20022;-81
2023/10/15 08:51:44;;;;;;;5.47;1.53;;;;;;;9.89;100.00;101991.44;5221533;28;20151;-78
2023/10/15 08:54:17;;;;;;;6.17;1.47;;;;;;;10.03;100.00;101992.66;5228586;28;20063;-79
2023/10/15 08:56:49;;;;;;;6.00;1.80;;;;;;;9.95;100.00;102005.19;5224117;28;20163;-79
2023/10/15 08:59:22;;;;;;;4.20;1.03;;;;;;;10.14;100.00;102041.97;5227744;28;20520;-79
2023/10/15 09:01:54;;;;;;;4.90;1.20;;;;;;;10.01;100.00;102047.69;5234723;28;20029;-79
2023/10/15 09:04:27;;;;;;;5.43;1.43;;;;;;;9.59;100.00;101999.53;5233368;28;20052;-80
2023/10/15 09:07:02;;;;;;;6.27;1.53;;;;;;;9.59;100.00;101999.53;5225725;28;20064;-80
2023/10/15 09:09:34;;;;;;;8.60;1.80;;;;;;;9.62;100.00;102022.94;5226943;28;20029;-79
2023/10/15 09:12:12;;;;;;;5.63;1.47;;;;;;;9.65;100.00;102041.13;5225431;28;20031;-80
2023/10/15 09:14:47;;;;;;;5.20;1.80;;;;;;;10.05;100.00;102066.75;5229244;28;20108;-80
2023/10/15 09:17:19;;;;;;;5.03;1.47;;;;;;;10.05;100.00;102077.22;5228117;28;20025;-80
2023/10/15 09:19:52;;;;;;;5.23;1.20;;;;;;;9.95;100.00;102036.59;5228871;28;20036;-81
2023/10/15 09:22:24;;;;;;;4.10;1.27;;;;;;;10.05;100.00;102054.50;5216342;28;20086;-79
2023/10/15 09:24:55;;;;;;;4.90;1.23;;;;;;;9.91;100.00;102062.88;5229436;28;20827;-79
2023/10/15 09:27:26;;;;;;;6.37;1.70;;;;;;;10.29;100.00;102085.03;5223116;28;20513;-79
2023/10/15 09:30:18;;;;;;;5.03;1.50;;;;;;;10.17;100.00;102047.94;5248435;28;20860;-78
2023/10/15 09:32:50;;;;;;;4.70;1.10;;;;;;;10.35;100.00;102065.63;5233782;28;20038;-79
2023/10/15 09:35:22;;;;;;;7.27;1.83;;;;;;;10.31;100.00;102053.56;5234142;28;20404;-77
2023/10/15 09:37:56;;;;;;;3.37;1.20;;;;;;;10.52;100.00;102031.75;5232615;28;20083;-77
2023/10/15 09:40:35;;;;;;;5.65;1.75;;;;;;;10.63;100.00;102033.94;5232276;28;20021;-77
2023/10/15 09:43:08;;;;;;;5.63;1.37;;;;;;;11.41;100.00;102053.44;5232939;28;20027;-77
2023/10/15 09:45:41;;;;;;;4.30;1.10;;;;;;;11.22;100.00;102040.28;5233525;28;20021;-78
2023/10/15 09:48:14;;;;;;;3.50;0.80;;;;;;;11.16;100.00;102056.25;5232546;28;20025;-78
2023/10/15 09:50:47;;;;;;;3.13;1.00;;;;;;;11.21;100.00;102059.53;5231550;28;20069;-78
2023/10/15 09:53:21;;;;;;;4.93;0.90;;;;;;;11.25;100.00;102088.22;5233078;28;20092;-77
2023/10/15 09:55:54;;;;;;;2.53;0.70;;;;;;;11.00;100.00;102080.50;5245972;28;20025;-78
2023/10/15 09:58:26;;;;;;;4.13;1.20;;;;;;;11.08;100.00;102090.69;5229256;28;20048;-77
2023/10/15 10:01:08;;;;;;;5.50;1.20;;;;;;;11.10;100.00;102084.44;5231877;28;20019;-77
2023/10/15 10:03:49;;;;;;;3.17;1.20;;;;;;;11.18;100.00;102107.75;5233528;28;20377;-78
2023/10/15 10:06:42;;;;;;;2.77;0.83;;;;;;;11.34;100.00;102107.09;5231396;28;20025;-78
2023/10/15 10:09:54;;;;;;;3.00;0.90;;;;;;;11.34;100.00;102105.31;5217074;28;20032;-78
2023/10/15 10:13:10;;;;;;;3.73;0.90;;;;;;;11.41;100.00;102107.66;5141579;28;20260;-77
2023/10/15 10:15:57;;;;;;;3.33;1.00;;;;;;;11.10;100.00;102058.22;5222068;28;21377;-77
2023/10/15 10:18:33;;;;;;;4.73;1.37;;;;;;;11.30;100.00;102095.88;5223201;28;20040;-77
2023/10/15 10:21:11;;;;;;;4.63;0.97;;;;;;;11.22;100.00;102080.44;5223342;28;20017;-77
2023/10/15 10:24:02;;;;;;;2.80;0.80;;;;;;;11.24;100.00;102056.81;5223641;28;20025;-77
2023/10/15 10:26:37;;;;;;;4.50;0.90;;;;;;;11.24;100.00;102085.66;5222748;28;20448;-77
2023/10/15 10:29:09;;;;;;;4.80;1.47;;;;;;;11.41;100.00;102118.16;5237792;28;20026;-77
2023/10/15 10:31:41;;;;;;;2.33;0.80;;;;;;;11.03;100.00;102059.41;5223114;28;20033;-78
2023/10/15 10:34:14;;;;;;;3.00;0.80;;;;;;;11.15;100.00;102107.88;5225212;28;21614;-77
2023/10/15 10:36:52;;;;;;;3.00;0.90;;;;;;;11.25;100.00;102114.44;5223075;28;20819;-78
2023/10/15 10:39:25;;;;;;;3.47;1.03;;;;;;;11.10;100.00;102102.81;5223616;28;20071;-78
2023/10/15 10:42:00;;;;;;;4.30;1.10;;;;;;;11.34;100.00;102122.81;5223541;28;20024;-77
2023/10/15 10:44:33;;;;;;;4.57;1.83;;;;;;;11.38;100.00;102135.72;5224562;28;20032;-77
2023/10/15 10:47:18;;;;;;;4.50;1.50;;;;;;;11.65;100.00;102108.38;5226192;28;20083;-78
2023/10/15 10:49:58;;;;;;;3.50;0.83;;;;;;;11.67;100.00;102093.41;5223388;28;20106;-78
2023/10/15 10:52:34;;;;;;;7.17;1.07;;;;;;;11.70;100.00;102092.41;5230357;28;20509;-78
2023/10/15 10:55:29;;;;;;;2.97;0.90;;;;;;;12.29;100.00;102137.06;5227233;28;20056;-78
2023/10/15 10:58:07;;;;;;;3.15;1.15;;;;;;;12.03;100.00;102096.19;5230428;28;20021;-77
2023/10/15 11:00:39;;;;;;;4.40;1.27;;;;;;;11.98;100.00;102113.03;5228529;28;20473;-78
2023/10/15 11:03:11;;;;;;;6.60;1.47;;;;;;;12.18;100.00;102139.34;5230854;28;20025;-78
2023/10/15 11:05:42;;;;;;;4.40;1.03;;;;;;;12.04;100.00;102135.53;5219446;28;20029;-79
2023/10/15 11:08:18;;;;;;;2.70;1.17;;;;;;;12.04;100.00;102109.28;5226913;28;20049;-78
2023/10/15 11:10:50;;;;;;;4.30;1.20;;;;;;;11.95;100.00;102117.56;5222524;28;20033;-78
2023/10/15 11:13:21;;;;;;;5.13;1.43;;;;;;;12.00;100.00;102101.59;5235618;28;20037;-80
2023/10/15 11:15:56;;;;;;;3.37;0.90;;;;;;;12.08;100.00;102126.59;5222321;28;20108;-79
2023/10/15 11:18:29;;;;;;;;;;;;;;;12.75;100.00;102148.09;5222709;28;20413;-79
2023/10/15 11:21:01;;;;;;;5.17;1.17;;;;;;;11.89;100.00;102091.56;5224993;28;19955;-78
2023/10/15 11:23:32;;;;;;;3.43;1.10;;;;;;;12.03;100.00;102117.19;5239283;28;20029;-78
2023/10/15 11:26:04;;;;;;;3.03;0.80;;;;;;;11.88;100.00;102089.88;5233770;28;20036;-78
2023/10/15 11:28:36;;;;;;;2.60;0.90;;;;;;;12.07;100.00;102116.16;5223940;28;20033;-78
2023/10/15 11:31:08;;;;;;;3.57;0.87;;;;;;;11.86;100.00;102088.19;5222263;28;20673;-78
2023/10/15 11:33:39;;;;;;;4.47;1.20;;;;;;;11.91;100.00;102100.25;5223096;28;20029;-79
2023/10/15 11:36:11;;;;;;;2.90;0.70;;;;;;;11.82;100.00;102107.63;5223332;28;20033;-80
2023/10/15 11:38:43;;;;;;;3.63;1.30;;;;;;;12.06;100.00;102123.16;5222973;28;20483;-78
2023/10/15 11:41:14;;;;;;;2.83;0.73;;;;;;;11.88;100.00;102109.13;5238075;28;20036;-77
2023/10/15 11:43:48;;;;;;;8.93;1.20;;;;;;;12.10;100.00;102142.28;5223256;28;20075;-78
2023/10/15 11:46:23;;;;;;;;;;;;;;;12.83;100.00;102164.31;5224204;28;20045;-78
2023/10/15 11:48:54;;;;;;;4.90;0.93;;;;;;;12.10;100.00;102116.91;5223721;28;19916;-78
2023/10/15 11:51:27;;;;;;;4.63;1.43;;;;;;;12.32;100.00;102126.41;5220898;28;20523;-78
2023/10/15 11:54:02;;;;;;;8.17;1.63;;;;;;;12.27;100.00;102096.03;5226465;28;20051;-78
2023/10/15 11:56:34;;;;;;;6.20;1.20;;;;;;;12.48;100.00;102144.06;5229244;28;20040;-77
2023/10/15 11:59:05;;;;;;;4.73;0.97;;;;;;;12.31;100.00;102113.34;5227556;28;20493;-77
2023/10/15 12:01:36;;;;;;;5.93;1.63;;;;;;;12.60;100.00;102123.41;5243080;28;20413;-78
2023/10/15 12:04:10;;;;;;;6.43;1.10;;;;;;;12.30;100.00;102115.13;5228421;28;20109;-78
2023/10/15 12:06:43;;;;;;;5.18;1.48;;;;;;;12.49;100.00;102135.28;5228850;28;20061;-78
2023/10/15 12:09:24;;;;;;;4.37;1.40;;;;;;;12.76;100.00;102145.38;5227118;28;20114;-77